sensor_id;sensor_type;location;lat;lon;timestamp;pressure;altitude;pressure_sealevel;temperature;humidity
58090;BME280;45149;50.976;6.120;2022-08-14T00:02:08;100015.50;;;19.64;100.00
58090;BME280;45149;50.976;6.120;2022-08-14T00:04:34;100014.81;;;19.82;100.00
58090;BME280;45149;50.976;6.120;2022-08-14T00:07:01;100021.16;;;19.67;100.00
58090;BME280;45149;50.976;6.120;2022-08-14T00:09:27;100013.25;;;19.47;100.00
58090;BME280;45149;50.976;6.120;2022-08-14T00:11:52;100014.91;;;19.43;100.00
58090;BME280;45149;50.976;6.120;2022-08-14T00:14:18;100000.75;;;19.22;100.00
58090;BME280;45149;50.976;6.120;2022-08-14T00:16:43;99996.47;;;19.15;100.00
58090;BME280;45149;50.976;6.120;2022-08-14T00:19:09;99997.06;;;19.07;100.00
58090;BME280;45149;50.976;6.120;2022-08-14T00:21:35;99996.59;;;19.00;100.00
58090;BME280;45149;50.976;6.120;2022-08-14T00:24:03;99999.31;;;19.00;100.00
58090;BME280;45149;50.976;6.120;2022-08-14T00:26:29;99992.56;;;18.97;100.00
58090;BME280;45149;50.976;6.120;2022-08-14T00:28:55;99992.84;;;18.96;100.00
58090;BME280;45149;50.976;6.120;2022-08-14T00:31:21;99988.16;;;19.07;100.00
58090;BME280;45149;50.976;6.120;2022-08-14T00:33:47;99981.69;;;19.03;100.00
58090;BME280;45149;50.976;6.120;2022-08-14T00:36:13;99978.25;;;18.92;100.00
58090;BME280;45149;50.976;6.120;2022-08-14T00:38:38;99973.66;;;18.92;100.00
58090;BME280;45149;50.976;6.120;2022-08-14T00:41:06;99965.50;;;18.97;100.00
58090;BME280;45149;50.976;6.120;2022-08-14T00:43:35;99965.25;;;18.94;100.00
58090;BME280;45149;50.976;6.120;2022-08-14T00:46:07;99960.63;;;18.99;100.00
58090;BME280;45149;50.976;6.120;2022-08-14T00:48:33;99965.59;;;18.82;100.00
58090;BME280;45149;50.976;6.120;2022-08-14T00:50:59;99968.59;;;18.80;100.00
58090;BME280;45149;50.976;6.120;2022-08-14T00:53:24;99963.53;;;18.68;100.00
58090;BME280;45149;50.976;6.120;2022-08-14T00:55:51;99949.19;;;18.68;100.00
58090;BME280;45149;50.976;6.120;2022-08-14T00:58:20;99944.00;;;18.72;100.00
58090;BME280;45149;50.976;6.120;2022-08-14T01:00:55;99937.22;;;18.79;100.00
58090;BME280;45149;50.976;6.120;2022-08-14T01:03:21;99930.13;;;18.83;100.00
58090;BME280;45149;50.976;6.120;2022-08-14T01:05:49;99933.63;;;18.84;100.00
58090;BME280;45149;50.976;6.120;2022-08-14T01:08:23;99926.25;;;18.60;100.00
58090;BME280;45149;50.976;6.120;2022-08-14T01:10:48;99926.00;;;18.57;100.00
58090;BME280;45149;50.976;6.120;2022-08-14T01:13:29;99919.38;;;18.39;100.00
58090;BME280;45149;50.976;6.120;2022-08-14T01:15:59;99923.91;;;18.48;100.00
58090;BME280;45149;50.976;6.120;2022-08-14T01:18:26;99919.31;;;18.49;100.00
58090;BME280;45149;50.976;6.120;2022-08-14T01:21:10;99914.66;;;18.60;100.00
58090;BME280;45149;50.976;6.120;2022-08-14T01:23:45;99911.78;;;18.46;100.00
58090;BME280;45149;50.976;6.120;2022-08-14T01:26:11;99908.78;;;18.47;100.00
58090;BME280;45149;50.976;6.120;2022-08-14T01:28:38;99902.63;;;18.37;100.00
58090;BME280;45149;50.976;6.120;2022-08-14T01:31:14;99905.94;;;18.28;100.00
58090;BME280;45149;50.976;6.120;2022-08-14T01:33:42;99908.16;;;18.21;100.00
58090;BME280;45149;50.976;6.120;2022-08-14T01:36:12;99909.69;;;18.32;100.00
58090;BME280;45149;50.976;6.120;2022-08-14T01:38:41;99915.00;;;18.48;100.00
58090;BME280;45149;50.976;6.120;2022-08-14T01:41:10;99909.09;;;18.75;100.00
58090;BME280;45149;50.976;6.120;2022-08-14T01:43:47;99910.41;;;18.83;100.00
58090;BME280;45149;50.976;6.120;2022-08-14T01:46:14;99911.72;;;18.91;100.00
58090;BME280;45149;50.976;6.120;2022-08-14T01:48:41;99907.06;;;18.96;100.00
58090;BME280;45149;50.976;6.120;2022-08-14T01:51:09;99908.84;;;19.06;100.00
58090;BME280;45149;50.976;6.120;2022-08-14T01:53:34;99903.78;;;18.99;100.00
58090;BME280;45149;50.976;6.120;2022-08-14T01:56:03;99898.91;;;19.01;100.00
58090;BME280;45149;50.976;6.120;2022-08-14T01:58:29;99900.38;;;18.89;100.00
58090;BME280;45149;50.976;6.120;2022-08-14T02:00:55;99898.75;;;18.82;100.00
58090;BME280;45149;50.976;6.120;2022-08-14T02:03:22;99899.38;;;18.74;100.00
58090;BME280;45149;50.976;6.120;2022-08-14T02:05:48;99902.94;;;18.70;100.00
58090;BME280;45149;50.976;6.120;2022-08-14T02:08:13;99902.91;;;18.75;100.00
58090;BME280;45149;50.976;6.120;2022-08-14T02:10:40;99892.91;;;18.70;100.00
58090;BME280;45149;50.976;6.120;2022-08-14T02:13:06;99893.34;;;18.82;100.00
58090;BME280;45149;50.976;6.120;2022-08-14T02:15:35;99903.00;;;18.94;100.00
58090;BME280;45149;50.976;6.120;2022-08-14T02:18:05;99901.28;;;19.08;100.00
58090;BME280;45149;50.976;6.120;2022-08-14T02:20:31;99895.53;;;19.15;100.00
58090;BME280;45149;50.976;6.120;2022-08-14T02:22:59;99889.41;;;19.04;100.00
58090;BME280;45149;50.976;6.120;2022-08-14T02:25:25;99889.16;;;19.00;100.00
58090;BME280;45149;50.976;6.120;2022-08-14T02:27:50;99900.25;;;18.99;100.00
58090;BME280;45149;50.976;6.120;2022-08-14T02:30:21;99901.56;;;19.07;100.00
58090;BME280;45149;50.976;6.120;2022-08-14T02:32:46;99893.81;;;18.95;100.00
58090;BME280;45149;50.976;6.120;2022-08-14T02:35:12;99896.31;;;18.86;100.00
58090;BME280;45149;50.976;6.120;2022-08-14T02:37:42;99891.78;;;18.76;100.00
58090;BME280;45149;50.976;6.120;2022-08-14T02:40:07;99888.25;;;18.76;100.00
58090;BME280;45149;50.976;6.120;2022-08-14T02:42:33;99890.78;;;18.67;100.00
58090;BME280;45149;50.976;6.120;2022-08-14T02:44:58;99884.34;;;18.63;100.00
58090;BME280;45149;50.976;6.120;2022-08-14T02:47:24;99880.91;;;18.52;100.00
58090;BME280;45149;50.976;6.120;2022-08-14T02:49:50;99878.59;;;18.35;100.00
58090;BME280;45149;50.976;6.120;2022-08-14T02:52:16;99881.28;;;18.40;100.00
58090;BME280;45149;50.976;6.120;2022-08-14T02:54:41;99881.22;;;18.45;100.00
58090;BME280;45149;50.976;6.120;2022-08-14T02:57:06;99874.72;;;18.46;100.00
58090;BME280;45149;50.976;6.120;2022-08-14T02:59:34;99866.94;;;18.40;100.00
58090;BME280;45149;50.976;6.120;2022-08-14T03:02:02;99865.06;;;18.40;100.00
58090;BME280;45149;50.976;6.120;2022-08-14T03:04:28;99864.00;;;18.36;100.00
58090;BME280;45149;50.976;6.120;2022-08-14T03:06:55;99859.13;;;18.33;100.00
58090;BME280;45149;50.976;6.120;2022-08-14T03:09:21;99865.13;;;18.30;100.00
58090;BME280;45149;50.976;6.120;2022-08-14T03:11:47;99858.06;;;18.34;100.00
58090;BME280;45149;50.976;6.120;2022-08-14T03:14:12;99866.97;;;18.34;100.00
58090;BME280;45149;50.976;6.120;2022-08-14T03:16:39;99858.09;;;18.29;100.00
58090;BME280;45149;50.976;6.120;2022-08-14T03:19:07;99860.47;;;18.36;100.00
58090;BME280;45149;50.976;6.120;2022-08-14T03:21:34;99855.94;;;18.26;100.00
58090;BME280;45149;50.976;6.120;2022-08-14T03:24:02;99855.69;;;18.22;100.00
58090;BME280;45149;50.976;6.120;2022-08-14T03:26:38;99853.78;;;18.28;100.00
58090;BME280;45149;50.976;6.120;2022-08-14T03:29:04;99854.59;;;18.28;100.00
58090;BME280;45149;50.976;6.120;2022-08-14T03:31:30;99861.09;;;18.22;100.00
58090;BME280;45149;50.976;6.120;2022-08-14T03:33:57;99857.41;;;18.13;100.00
58090;BME280;45149;50.976;6.120;2022-08-14T03:36:22;99859.78;;;18.20;100.00
58090;BME280;45149;50.976;6.120;2022-08-14T03:38:50;99857.69;;;18.11;100.00
58090;BME280;45149;50.976;6.120;2022-08-14T03:41:23;99847.19;;;18.05;100.00
58090;BME280;45149;50.976;6.120;2022-08-14T03:43:52;99854.44;;;18.09;100.00
58090;BME280;45149;50.976;6.120;2022-08-14T03:46:21;99850.13;;;18.08;100.00
58090;BME280;45149;50.976;6.120;2022-08-14T03:48:46;99850.03;;;18.24;100.00
58090;BME280;45149;50.976;6.120;2022-08-14T03:51:13;99847.41;;;18.08;100.00
58090;BME280;45149;50.976;6.120;2022-08-14T03:53:43;99839.59;;;18.07;100.00
58090;BME280;45149;50.976;6.120;2022-08-14T03:56:10;99842.88;;;18.04;100.00
58090;BME280;45149;50.976;6.120;2022-08-14T03:58:40;99840.47;;;17.97;100.00
58090;BME280;45149;50.976;6.120;2022-08-14T04:01:07;99836.69;;;17.98;100.00
58090;BME280;45149;50.976;6.120;2022-08-14T04:03:33;99848.19;;;18.14;100.00
58090;BME280;45149;50.976;6.120;2022-08-14T04:05:59;99838.56;;;17.97;100.00
58090;BME280;45149;50.976;6.120;2022-08-14T04:08:24;99841.59;;;17.86;100.00
58090;BME280;45149;50.976;6.120;2022-08-14T04:10:49;99837.91;;;17.66;100.00
58090;BME280;45149;50.976;6.120;2022-08-14T04:13:15;99841.63;;;17.75;100.00
58090;BME280;45149;50.976;6.120;2022-08-14T04:15:45;99833.88;;;17.69;100.00
58090;BME280;45149;50.976;6.120;2022-08-14T04:18:11;99833.28;;;17.72;100.00
58090;BME280;45149;50.976;6.120;2022-08-14T04:20:39;99832.75;;;17.70;100.00
58090;BME280;45149;50.976;6.120;2022-08-14T04:23:05;99830.91;;;17.60;100.00
58090;BME280;45149;50.976;6.120;2022-08-14T04:25:32;99831.19;;;17.63;100.00
58090;BME280;45149;50.976;6.120;2022-08-14T04:27:59;99830.31;;;17.73;100.00
58090;BME280;45149;50.976;6.120;2022-08-14T04:30:25;99822.25;;;17.63;100.00
58090;BME280;45149;50.976;6.120;2022-08-14T04:32:55;99824.94;;;17.68;100.00
58090;BME280;45149;50.976;6.120;2022-08-14T04:35:21;99820.91;;;17.65;100.00
58090;BME280;45149;50.976;6.120;2022-08-14T04:37:46;99824.22;;;17.52;100.00
58090;BME280;45149;50.976;6.120;2022-08-14T04:40:30;99810.16;;;17.55;100.00
58090;BME280;45149;50.976;6.120;2022-08-14T04:43:14;99809.91;;;17.52;100.00
58090;BME280;45149;50.976;6.120;2022-08-14T04:45:58;99813.41;;;17.52;100.00
58090;BME280;45149;50.976;6.120;2022-08-14T04:48:26;99814.19;;;17.58;100.00
58090;BME280;45149;50.976;6.120;2022-08-14T04:50:52;99812.28;;;17.58;100.00
58090;BME280;45149;50.976;6.120;2022-08-14T04:53:19;99803.91;;;17.65;100.00
58090;BME280;45149;50.976;6.120;2022-08-14T04:55:46;99802.28;;;17.64;100.00
58090;BME280;45149;50.976;6.120;2022-08-14T04:58:27;99798.81;;;17.58;100.00
58090;BME280;45149;50.976;6.120;2022-08-14T05:00:54;99796.91;;;17.59;100.00
58090;BME280;45149;50.976;6.120;2022-08-14T05:03:21;99794.19;;;17.59;100.00
58090;BME280;45149;50.976;6.120;2022-08-14T05:05:47;99790.91;;;17.67;100.00
58090;BME280;45149;50.976;6.120;2022-08-14T05:08:13;99792.25;;;17.70;100.00
58090;BME280;45149;50.976;6.120;2022-08-14T05:10:42;99796.56;;;17.76;100.00
58090;BME280;45149;50.976;6.120;2022-08-14T05:13:08;99790.25;;;17.91;100.00
58090;BME280;45149;50.976;6.120;2022-08-14T05:15:38;99793.63;;;18.12;100.00
58090;BME280;45149;50.976;6.120;2022-08-14T05:18:10;99783.69;;;18.07;100.00
58090;BME280;45149;50.976;6.120;2022-08-14T05:20:37;99787.88;;;18.24;100.00
58090;BME280;45149;50.976;6.120;2022-08-14T05:23:03;99783.16;;;18.34;100.00
58090;BME280;45149;50.976;6.120;2022-08-14T05:25:28;99794.13;;;18.48;100.00
58090;BME280;45149;50.976;6.120;2022-08-14T05:27:56;99797.38;;;18.50;100.00
58090;BME280;45149;50.976;6.120;2022-08-14T05:30:25;99792.22;;;18.54;100.00
58090;BME280;45149;50.976;6.120;2022-08-14T05:32:50;99793.50;;;18.57;100.00
58090;BME280;45149;50.976;6.120;2022-08-14T05:35:16;99787.22;;;18.66;100.00
58090;BME280;45149;50.976;6.120;2022-08-14T05:37:42;99783.03;;;18.79;100.00
58090;BME280;45149;50.976;6.120;2022-08-14T05:40:08;99784.31;;;18.87;100.00
58090;BME280;45149;50.976;6.120;2022-08-14T05:42:34;99781.84;;;18.91;100.00
58090;BME280;45149;50.976;6.120;2022-08-14T05:45:00;99782.84;;;19.00;100.00
58090;BME280;45149;50.976;6.120;2022-08-14T05:47:25;99781.16;;;19.04;100.00
58090;BME280;45149;50.976;6.120;2022-08-14T05:49:51;99793.47;;;19.15;100.00
58090;BME280;45149;50.976;6.120;2022-08-14T05:52:16;99791.00;;;19.19;100.00
58090;BME280;45149;50.976;6.120;2022-08-14T05:54:41;99791.28;;;19.17;100.00
58090;BME280;45149;50.976;6.120;2022-08-14T05:57:07;99799.28;;;19.28;100.00
58090;BME280;45149;50.976;6.120;2022-08-14T05:59:32;99792.44;;;19.35;100.00
58090;BME280;45149;50.976;6.120;2022-08-14T06:01:59;99794.25;;;19.40;100.00
58090;BME280;45149;50.976;6.120;2022-08-14T06:04:24;99776.69;;;19.38;100.00
58090;BME280;45149;50.976;6.120;2022-08-14T06:06:49;99785.91;;;19.56;100.00
58090;BME280;45149;50.976;6.120;2022-08-14T06:09:15;99796.94;;;19.64;100.00
58090;BME280;45149;50.976;6.120;2022-08-14T06:11:40;99790.72;;;19.83;100.00
58090;BME280;45149;50.976;6.120;2022-08-14T06:14:06;99788.97;;;19.92;100.00
58090;BME280;45149;50.976;6.120;2022-08-14T06:16:31;99788.84;;;20.16;100.00
58090;BME280;45149;50.976;6.120;2022-08-14T06:18:57;99793.59;;;20.25;100.00
58090;BME280;45149;50.976;6.120;2022-08-14T06:21:22;99789.09;;;20.34;100.00
58090;BME280;45149;50.976;6.120;2022-08-14T06:23:47;99800.13;;;20.57;100.00
58090;BME280;45149;50.976;6.120;2022-08-14T06:26:13;99788.94;;;20.77;100.00
58090;BME280;45149;50.976;6.120;2022-08-14T06:28:41;99787.34;;;20.90;100.00
58090;BME280;45149;50.976;6.120;2022-08-14T06:31:06;99790.66;;;21.15;100.00
58090;BME280;45149;50.976;6.120;2022-08-14T06:33:31;99784.09;;;21.44;100.00
58090;BME280;45149;50.976;6.120;2022-08-14T06:35:57;99777.22;;;21.60;100.00
58090;BME280;45149;50.976;6.120;2022-08-14T06:38:22;99780.91;;;21.78;100.00
58090;BME280;45149;50.976;6.120;2022-08-14T06:40:49;99777.03;;;21.93;100.00
58090;BME280;45149;50.976;6.120;2022-08-14T06:43:18;99765.59;;;22.05;100.00
58090;BME280;45149;50.976;6.120;2022-08-14T06:45:45;99766.88;;;22.30;100.00
58090;BME280;45149;50.976;6.120;2022-08-14T06:48:21;99762.38;;;22.48;100.00
58090;BME280;45149;50.976;6.120;2022-08-14T06:50:48;99769.69;;;22.70;100.00
58090;BME280;45149;50.976;6.120;2022-08-14T06:53:14;99762.09;;;22.99;100.00
58090;BME280;45149;50.976;6.120;2022-08-14T06:55:41;99757.69;;;23.20;100.00
58090;BME280;45149;50.976;6.120;2022-08-14T06:58:10;99766.03;;;23.24;100.00
58090;BME280;45149;50.976;6.120;2022-08-14T07:00:36;99763.47;;;23.19;100.00
58090;BME280;45149;50.976;6.120;2022-08-14T07:03:01;99769.78;;;23.54;100.00
58090;BME280;45149;50.976;6.120;2022-08-14T07:05:45;99769.44;;;23.65;100.00
58090;BME280;45149;50.976;6.120;2022-08-14T07:08:12;99770.41;;;23.86;100.00
58090;BME280;45149;50.976;6.120;2022-08-14T07:10:38;99764.84;;;23.91;100.00
58090;BME280;45149;50.976;6.120;2022-08-14T07:13:04;99765.59;;;24.10;100.00
58090;BME280;45149;50.976;6.120;2022-08-14T07:15:31;99758.66;;;24.38;100.00
58090;BME280;45149;50.976;6.120;2022-08-14T07:17:57;99755.31;;;24.80;100.00
58090;BME280;45149;50.976;6.120;2022-08-14T07:20:22;99755.84;;;24.65;100.00
58090;BME280;45149;50.976;6.120;2022-08-14T07:22:48;99764.66;;;24.70;100.00
58090;BME280;45149;50.976;6.120;2022-08-14T07:25:14;99759.38;;;24.74;100.00
58090;BME280;45149;50.976;6.120;2022-08-14T07:27:41;99762.84;;;24.83;99.70
58090;BME280;45149;50.976;6.120;2022-08-14T07:30:07;99769.03;;;24.63;100.00
58090;BME280;45149;50.976;6.120;2022-08-14T07:32:32;99765.63;;;24.74;100.00
58090;BME280;45149;50.976;6.120;2022-08-14T07:34:58;99762.19;;;24.86;98.24
58090;BME280;45149;50.976;6.120;2022-08-14T07:37:23;99759.59;;;24.90;98.32
58090;BME280;45149;50.976;6.120;2022-08-14T07:39:49;99752.09;;;25.08;96.76
58090;BME280;45149;50.976;6.120;2022-08-14T07:42:15;99756.19;;;25.23;95.56
58090;BME280;45149;50.976;6.120;2022-08-14T07:44:41;99757.59;;;25.38;93.72
58090;BME280;45149;50.976;6.120;2022-08-14T07:47:06;99763.88;;;25.59;91.83
58090;BME280;45149;50.976;6.120;2022-08-14T07:49:31;99760.72;;;25.70;91.42
58090;BME280;45149;50.976;6.120;2022-08-14T07:51:58;99766.38;;;25.65;91.77
58090;BME280;45149;50.976;6.120;2022-08-14T07:54:24;99760.63;;;26.00;89.29
58090;BME280;45149;50.976;6.120;2022-08-14T07:56:50;99759.25;;;26.27;87.93
58090;BME280;45149;50.976;6.120;2022-08-14T07:59:15;99761.03;;;26.69;82.84
58090;BME280;45149;50.976;6.120;2022-08-14T08:01:42;99753.53;;;27.15;80.93
58090;BME280;45149;50.976;6.120;2022-08-14T08:04:09;99754.88;;;27.21;77.87
58090;BME280;45149;50.976;6.120;2022-08-14T08:06:35;99749.94;;;27.27;75.45
58090;BME280;45149;50.976;6.120;2022-08-14T08:09:03;99749.16;;;27.26;74.50
58090;BME280;45149;50.976;6.120;2022-08-14T08:11:33;99752.25;;;27.12;74.01
58090;BME280;45149;50.976;6.120;2022-08-14T08:13:59;99756.47;;;27.10;73.90
58090;BME280;45149;50.976;6.120;2022-08-14T08:16:27;99753.78;;;27.51;72.38
58090;BME280;45149;50.976;6.120;2022-08-14T08:18:52;99758.19;;;28.08;68.26
58090;BME280;45149;50.976;6.120;2022-08-14T08:21:18;99763.38;;;28.42;65.14
58090;BME280;45149;50.976;6.120;2022-08-14T08:23:43;99768.66;;;29.14;63.12
58090;BME280;45149;50.976;6.120;2022-08-14T08:26:09;99766.28;;;29.48;61.70
58090;BME280;45149;50.976;6.120;2022-08-14T08:28:34;99772.63;;;29.88;57.85
58090;BME280;45149;50.976;6.120;2022-08-14T08:31:02;99778.78;;;30.67;53.96
58090;BME280;45149;50.976;6.120;2022-08-14T08:33:30;99777.31;;;31.23;52.54
58090;BME280;45149;50.976;6.120;2022-08-14T08:36:06;99775.00;;;31.90;52.48
58090;BME280;45149;50.976;6.120;2022-08-14T08:38:33;99770.97;;;32.55;49.83
58090;BME280;45149;50.976;6.120;2022-08-14T08:40:59;99776.13;;;33.12;47.60
58090;BME280;45149;50.976;6.120;2022-08-14T08:45:56;99767.03;;;33.12;45.53
58090;BME280;45149;50.976;6.120;2022-08-14T08:48:23;99766.16;;;33.67;44.42
58090;BME280;45149;50.976;6.120;2022-08-14T08:50:56;99762.72;;;34.02;44.34
58090;BME280;45149;50.976;6.120;2022-08-14T08:53:28;99761.13;;;33.98;42.37
58090;BME280;45149;50.976;6.120;2022-08-14T08:55:53;99764.94;;;33.61;44.04
58090;BME280;45149;50.976;6.120;2022-08-14T08:58:19;99771.41;;;33.90;42.40
58090;BME280;45149;50.976;6.120;2022-08-14T09:00:48;99763.50;;;34.03;43.65
58090;BME280;45149;50.976;6.120;2022-08-14T09:03:15;99761.88;;;33.77;43.03
58090;BME280;45149;50.976;6.120;2022-08-14T09:05:54;99753.22;;;34.07;42.59
58090;BME280;45149;50.976;6.120;2022-08-14T09:08:25;99742.22;;;34.58;40.69
58090;BME280;45149;50.976;6.120;2022-08-14T09:10:52;99741.03;;;34.33;40.94
58090;BME280;45149;50.976;6.120;2022-08-14T09:13:18;99743.00;;;34.44;41.72
58090;BME280;45149;50.976;6.120;2022-08-14T09:15:46;99744.97;;;34.29;40.77
58090;BME280;45149;50.976;6.120;2022-08-14T09:18:13;99743.75;;;34.98;40.18
58090;BME280;45149;50.976;6.120;2022-08-14T09:20:41;99738.22;;;34.26;39.83
58090;BME280;45149;50.976;6.120;2022-08-14T09:23:08;99739.41;;;35.01;39.08
58090;BME280;45149;50.976;6.120;2022-08-14T09:25:34;99741.41;;;34.64;40.36
58090;BME280;45149;50.976;6.120;2022-08-14T09:28:01;99739.84;;;34.63;38.95
58090;BME280;45149;50.976;6.120;2022-08-14T09:30:26;99745.25;;;35.39;38.68
58090;BME280;45149;50.976;6.120;2022-08-14T09:33:06;99729.34;;;35.54;38.33
58090;BME280;45149;50.976;6.120;2022-08-14T09:35:53;99735.19;;;35.70;37.04
58090;BME280;45149;50.976;6.120;2022-08-14T09:43:47;99726.00;;;36.48;36.74
58090;BME280;45149;50.976;6.120;2022-08-14T09:46:16;99720.78;;;35.94;35.79
58090;BME280;45149;50.976;6.120;2022-08-14T09:48:41;99719.03;;;36.67;34.32
58090;BME280;45149;50.976;6.120;2022-08-14T09:51:07;99720.63;;;36.68;34.26
58090;BME280;45149;50.976;6.120;2022-08-14T09:53:47;99709.59;;;36.57;34.33
58090;BME280;45149;50.976;6.120;2022-08-14T09:56:23;99704.44;;;36.59;34.99
58090;BME280;45149;50.976;6.120;2022-08-14T09:58:49;99709.41;;;36.79;32.88
58090;BME280;45149;50.976;6.120;2022-08-14T10:01:18;99703.19;;;36.15;32.40
58090;BME280;45149;50.976;6.120;2022-08-14T10:03:52;99694.44;;;35.49;32.75
58090;BME280;45149;50.976;6.120;2022-08-14T10:06:22;99691.84;;;35.06;33.44
58090;BME280;45149;50.976;6.120;2022-08-14T10:11:26;99693.84;;;34.80;33.15
58090;BME280;45149;50.976;6.120;2022-08-14T10:13:57;99691.97;;;35.66;30.51
58090;BME280;45149;50.976;6.120;2022-08-14T10:16:24;99689.13;;;36.36;30.97
58090;BME280;45149;50.976;6.120;2022-08-14T10:19:06;99691.38;;;36.94;30.18
58090;BME280;45149;50.976;6.120;2022-08-14T10:21:33;99676.84;;;36.76;30.26
58090;BME280;45149;50.976;6.120;2022-08-14T10:23:59;99683.84;;;37.29;29.40
58090;BME280;45149;50.976;6.120;2022-08-14T10:26:24;99683.31;;;37.38;30.53
58090;BME280;45149;50.976;6.120;2022-08-14T10:28:52;99674.09;;;37.72;29.87
58090;BME280;45149;50.976;6.120;2022-08-14T10:31:25;99666.84;;;38.29;28.59
58090;BME280;45149;50.976;6.120;2022-08-14T10:36:31;99660.88;;;38.74;28.15
58090;BME280;45149;50.976;6.120;2022-08-14T10:38:59;99671.69;;;38.01;27.76
58090;BME280;45149;50.976;6.120;2022-08-14T10:41:36;99672.75;;;38.79;27.32
58090;BME280;45149;50.976;6.120;2022-08-14T10:44:10;99664.88;;;38.94;27.42
58090;BME280;45149;50.976;6.120;2022-08-14T10:46:53;99665.94;;;37.58;27.27
58090;BME280;45149;50.976;6.120;2022-08-14T10:49:27;99654.94;;;37.78;28.03
58090;BME280;45149;50.976;6.120;2022-08-14T10:52:03;99652.66;;;38.20;27.13
58090;BME280;45149;50.976;6.120;2022-08-14T10:54:40;99653.63;;;37.55;27.36
58090;BME280;45149;50.976;6.120;2022-08-14T10:57:26;99652.78;;;38.80;26.53
58090;BME280;45149;50.976;6.120;2022-08-14T11:02:28;99650.09;;;38.77;25.28
58090;BME280;45149;50.976;6.120;2022-08-14T11:05:15;99643.50;;;37.68;25.57
58090;BME280;45149;50.976;6.120;2022-08-14T11:07:55;99634.94;;;36.94;25.74
58090;BME280;45149;50.976;6.120;2022-08-14T11:10:23;99622.00;;;36.38;26.65
58090;BME280;45149;50.976;6.120;2022-08-14T11:12:54;99612.03;;;36.02;28.21
58090;BME280;45149;50.976;6.120;2022-08-14T11:15:23;99608.97;;;35.79;29.03
58090;BME280;45149;50.976;6.120;2022-08-14T11:17:50;99607.31;;;35.96;28.31
58090;BME280;45149;50.976;6.120;2022-08-14T11:20:17;99609.03;;;37.00;28.26
58090;BME280;45149;50.976;6.120;2022-08-14T11:22:44;99599.59;;;37.21;27.05
58090;BME280;45149;50.976;6.120;2022-08-14T11:25:14;99597.03;;;38.36;27.55
58090;BME280;45149;50.976;6.120;2022-08-14T11:27:42;99595.56;;;38.92;26.52
58090;BME280;45149;50.976;6.120;2022-08-14T11:30:13;99599.22;;;38.69;26.65
58090;BME280;45149;50.976;6.120;2022-08-14T11:32:40;99602.06;;;39.05;26.69
58090;BME280;45149;50.976;6.120;2022-08-14T11:35:11;99604.16;;;39.01;26.34
58090;BME280;45149;50.976;6.120;2022-08-14T11:37:37;99590.41;;;37.83;26.66
58090;BME280;45149;50.976;6.120;2022-08-14T11:40:03;99594.34;;;38.09;26.69
58090;BME280;45149;50.976;6.120;2022-08-14T11:42:29;99597.94;;;38.73;26.54
58090;BME280;45149;50.976;6.120;2022-08-14T11:44:59;99600.53;;;38.17;25.94
58090;BME280;45149;50.976;6.120;2022-08-14T11:47:31;99591.34;;;38.20;26.33
58090;BME280;45149;50.976;6.120;2022-08-14T11:49:57;99587.53;;;38.54;26.77
58090;BME280;45149;50.976;6.120;2022-08-14T11:52:32;99580.16;;;38.64;27.08
58090;BME280;45149;50.976;6.120;2022-08-14T11:54:58;99578.00;;;39.48;26.36
58090;BME280;45149;50.976;6.120;2022-08-14T11:57:25;99565.63;;;39.13;26.58
58090;BME280;45149;50.976;6.120;2022-08-14T12:00:00;99576.03;;;39.29;26.05
58090;BME280;45149;50.976;6.120;2022-08-14T12:02:25;99562.44;;;39.97;25.69
58090;BME280;45149;50.976;6.120;2022-08-14T12:04:52;99564.81;;;39.49;25.61
58090;BME280;45149;50.976;6.120;2022-08-14T12:07:18;99562.38;;;39.51;25.46
58090;BME280;45149;50.976;6.120;2022-08-14T12:09:45;99546.44;;;39.15;26.88
58090;BME280;45149;50.976;6.120;2022-08-14T12:17:23;99533.41;;;36.05;29.18
58090;BME280;45149;50.976;6.120;2022-08-14T12:19:51;99544.28;;;35.29;29.47
58090;BME280;45149;50.976;6.120;2022-08-14T12:22:41;99526.91;;;35.18;29.82
58090;BME280;45149;50.976;6.120;2022-08-14T12:25:14;99527.19;;;35.42;29.36
58090;BME280;45149;50.976;6.120;2022-08-14T12:27:43;99522.94;;;35.15;30.11
58090;BME280;45149;50.976;6.120;2022-08-14T12:30:13;99524.78;;;34.66;30.03
58090;BME280;45149;50.976;6.120;2022-08-14T12:32:43;99510.66;;;35.16;29.51
58090;BME280;45149;50.976;6.120;2022-08-14T12:35:12;99515.19;;;35.52;29.89
58090;BME280;45149;50.976;6.120;2022-08-14T12:37:38;99510.47;;;36.36;29.38
58090;BME280;45149;50.976;6.120;2022-08-14T12:40:11;99512.28;;;36.12;29.57
58090;BME280;45149;50.976;6.120;2022-08-14T12:42:37;99508.47;;;35.53;29.41
58090;BME280;45149;50.976;6.120;2022-08-14T12:45:04;99508.03;;;35.54;30.06
58090;BME280;45149;50.976;6.120;2022-08-14T12:47:29;99501.78;;;34.73;31.08
58090;BME280;45149;50.976;6.120;2022-08-14T12:49:56;99495.16;;;35.26;30.36
58090;BME280;45149;50.976;6.120;2022-08-14T12:52:33;99492.91;;;35.63;29.66
58090;BME280;45149;50.976;6.120;2022-08-14T12:55:03;99488.78;;;35.36;30.28
58090;BME280;45149;50.976;6.120;2022-08-14T12:57:45;99492.63;;;35.95;30.31
58090;BME280;45149;50.976;6.120;2022-08-14T13:00:20;99490.44;;;36.14;30.01
58090;BME280;45149;50.976;6.120;2022-08-14T13:02:49;99476.31;;;36.97;28.87
58090;BME280;45149;50.976;6.120;2022-08-14T13:05:19;99486.19;;;36.71;29.61
58090;BME280;45149;50.976;6.120;2022-08-14T13:07:48;99481.50;;;38.17;28.92
58090;BME280;45149;50.976;6.120;2022-08-14T13:10:17;99487.78;;;38.62;27.26
58090;BME280;45149;50.976;6.120;2022-08-14T13:12:42;99486.25;;;37.77;28.04
58090;BME280;45149;50.976;6.120;2022-08-14T13:15:10;99477.13;;;37.96;27.93
58090;BME280;45149;50.976;6.120;2022-08-14T13:17:47;99469.41;;;37.36;27.95
58090;BME280;45149;50.976;6.120;2022-08-14T13:20:16;99476.22;;;39.16;27.11
58090;BME280;45149;50.976;6.120;2022-08-14T13:22:42;99470.28;;;38.21;27.10